sensor_id;sensor_type;location;lat;lon;timestamp;P1;durP1;ratioP1;P2;durP2;ratioP2
34072;SDS011;20346;52.702;16.886;2022-12-20T00:02:07;41.45;;;21.80;;
34072;SDS011;20346;52.702;16.886;2022-12-20T00:04:52;41.33;;;20.75;;
34072;SDS011;20346;52.702;16.886;2022-12-20T00:07:37;45.30;;;23.35;;
34072;SDS011;20346;52.702;16.886;2022-12-20T00:10:22;48.60;;;23.85;;
34072;SDS011;20346;52.702;16.886;2022-12-20T00:13:07;43.65;;;21.65;;
34072;SDS011;20346;52.702;16.886;2022-12-20T00:19:04;44.50;;;23.25;;
34072;SDS011;20346;52.702;16.886;2022-12-20T00:21:50;39.75;;;21.45;;
34072;SDS011;20346;52.702;16.886;2022-12-20T00:24:35;41.42;;;22.32;;
34072;SDS011;20346;52.702;16.886;2022-12-20T00:27:20;38.53;;;20.10;;
34072;SDS011;20346;52.702;16.886;2022-12-20T00:30:06;40.28;;;21.60;;
34072;SDS011;20346;52.702;16.886;2022-12-20T00:32:52;41.63;;;22.48;;
34072;SDS011;20346;52.702;16.886;2022-12-20T00:35:40;43.02;;;22.13;;
34072;SDS011;20346;52.702;16.886;2022-12-20T00:38:26;41.18;;;20.30;;
34072;SDS011;20346;52.702;16.886;2022-12-20T00:41:15;42.93;;;21.87;;
34072;SDS011;20346;52.702;16.886;2022-12-20T00:44:03;34.88;;;18.77;;
34072;SDS011;20346;52.702;16.886;2022-12-20T00:46:48;44.43;;;22.43;;
34072;SDS011;20346;52.702;16.886;2022-12-20T00:49:33;43.90;;;21.60;;
34072;SDS011;20346;52.702;16.886;2022-12-20T00:52:18;37.53;;;19.37;;
34072;SDS011;20346;52.702;16.886;2022-12-20T00:55:03;37.35;;;19.40;;
34072;SDS011;20346;52.702;16.886;2022-12-20T00:57:48;44.48;;;22.80;;
34072;SDS011;20346;52.702;16.886;2022-12-20T01:00:33;38.02;;;20.37;;
34072;SDS011;20346;52.702;16.886;2022-12-20T01:03:18;37.25;;;20.12;;
34072;SDS011;20346;52.702;16.886;2022-12-20T01:06:04;44.33;;;21.42;;
34072;SDS011;20346;52.702;16.886;2022-12-20T01:08:49;38.38;;;21.15;;
34072;SDS011;20346;52.702;16.886;2022-12-20T01:11:36;39.58;;;21.40;;
34072;SDS011;20346;52.702;16.886;2022-12-20T01:14:22;42.25;;;21.20;;
34072;SDS011;20346;52.702;16.886;2022-12-20T01:17:07;38.75;;;19.48;;
34072;SDS011;20346;52.702;16.886;2022-12-20T01:19:52;38.02;;;20.15;;
34072;SDS011;20346;52.702;16.886;2022-12-20T01:22:37;40.43;;;21.80;;
34072;SDS011;20346;52.702;16.886;2022-12-20T01:25:22;44.05;;;21.80;;
34072;SDS011;20346;52.702;16.886;2022-12-20T01:28:07;39.13;;;21.60;;
34072;SDS011;20346;52.702;16.886;2022-12-20T01:30:53;43.85;;;22.22;;
34072;SDS011;20346;52.702;16.886;2022-12-20T01:33:38;37.38;;;20.00;;
34072;SDS011;20346;52.702;16.886;2022-12-20T01:36:24;44.50;;;21.57;;
34072;SDS011;20346;52.702;16.886;2022-12-20T01:39:15;42.53;;;20.97;;
34072;SDS011;20346;52.702;16.886;2022-12-20T01:42:00;44.47;;;20.03;;
34072;SDS011;20346;52.702;16.886;2022-12-20T01:47:34;39.73;;;20.15;;
34072;SDS011;20346;52.702;16.886;2022-12-20T01:50:21;39.78;;;20.12;;
34072;SDS011;20346;52.702;16.886;2022-12-20T01:53:06;36.30;;;19.82;;
34072;SDS011;20346;52.702;16.886;2022-12-20T01:55:51;42.08;;;20.60;;
34072;SDS011;20346;52.702;16.886;2022-12-20T01:58:37;39.83;;;19.75;;
34072;SDS011;20346;52.702;16.886;2022-12-20T02:01:23;38.95;;;19.98;;
34072;SDS011;20346;52.702;16.886;2022-12-20T02:04:08;43.07;;;20.70;;
34072;SDS011;20346;52.702;16.886;2022-12-20T02:06:54;35.87;;;18.80;;
34072;SDS011;20346;52.702;16.886;2022-12-20T02:09:40;41.35;;;20.50;;
34072;SDS011;20346;52.702;16.886;2022-12-20T02:12:25;39.50;;;20.37;;
34072;SDS011;20346;52.702;16.886;2022-12-20T02:18:30;39.70;;;20.80;;
34072;SDS011;20346;52.702;16.886;2022-12-20T02:21:23;38.25;;;18.95;;
34072;SDS011;20346;52.702;16.886;2022-12-20T02:31:12;38.08;;;19.52;;
34072;SDS011;20346;52.702;16.886;2022-12-20T02:34:01;42.25;;;21.05;;
34072;SDS011;20346;52.702;16.886;2022-12-20T02:36:48;36.00;;;18.82;;
34072;SDS011;20346;52.702;16.886;2022-12-20T02:39:33;38.90;;;20.27;;
34072;SDS011;20346;52.702;16.886;2022-12-20T02:42:22;40.10;;;21.62;;
34072;SDS011;20346;52.702;16.886;2022-12-20T02:45:09;39.05;;;19.80;;
34072;SDS011;20346;52.702;16.886;2022-12-20T02:48:04;39.55;;;20.15;;
34072;SDS011;20346;52.702;16.886;2022-12-20T02:50:52;35.38;;;18.85;;
34072;SDS011;20346;52.702;16.886;2022-12-20T02:53:41;37.50;;;19.92;;
34072;SDS011;20346;52.702;16.886;2022-12-20T02:56:34;33.57;;;18.60;;
34072;SDS011;20346;52.702;16.886;2022-12-20T02:59:28;36.08;;;20.08;;
34072;SDS011;20346;52.702;16.886;2022-12-20T03:02:30;38.93;;;20.27;;
34072;SDS011;20346;52.702;16.886;2022-12-20T03:05:17;41.77;;;21.12;;
34072;SDS011;20346;52.702;16.886;2022-12-20T03:08:05;42.17;;;22.75;;
34072;SDS011;20346;52.702;16.886;2022-12-20T03:10:51;38.85;;;21.33;;
34072;SDS011;20346;52.702;16.886;2022-12-20T03:13:37;43.50;;;22.60;;
34072;SDS011;20346;52.702;16.886;2022-12-20T03:16:22;38.73;;;22.10;;
34072;SDS011;20346;52.702;16.886;2022-12-20T03:19:07;37.67;;;21.37;;
34072;SDS011;20346;52.702;16.886;2022-12-20T03:21:52;39.18;;;20.62;;
34072;SDS011;20346;52.702;16.886;2022-12-20T03:24:37;37.85;;;19.40;;
34072;SDS011;20346;52.702;16.886;2022-12-20T03:27:22;37.33;;;20.00;;
34072;SDS011;20346;52.702;16.886;2022-12-20T03:32:54;22.27;;;13.48;;
34072;SDS011;20346;52.702;16.886;2022-12-20T03:35:39;37.20;;;18.67;;
34072;SDS011;20346;52.702;16.886;2022-12-20T03:38:24;33.38;;;18.50;;
34072;SDS011;20346;52.702;16.886;2022-12-20T03:41:09;34.20;;;18.43;;
34072;SDS011;20346;52.702;16.886;2022-12-20T03:43:53;35.92;;;19.20;;
34072;SDS011;20346;52.702;16.886;2022-12-20T03:46:38;37.13;;;20.40;;
34072;SDS011;20346;52.702;16.886;2022-12-20T03:49:23;37.28;;;19.80;;
34072;SDS011;20346;52.702;16.886;2022-12-20T03:52:10;35.95;;;19.32;;
34072;SDS011;20346;52.702;16.886;2022-12-20T03:54:56;32.93;;;18.75;;
34072;SDS011;20346;52.702;16.886;2022-12-20T03:57:41;32.05;;;18.27;;
34072;SDS011;20346;52.702;16.886;2022-12-20T04:00:26;34.27;;;18.00;;
34072;SDS011;20346;52.702;16.886;2022-12-20T04:03:11;39.48;;;19.00;;
34072;SDS011;20346;52.702;16.886;2022-12-20T04:05:55;36.70;;;19.27;;
34072;SDS011;20346;52.702;16.886;2022-12-20T04:08:41;35.33;;;19.45;;
34072;SDS011;20346;52.702;16.886;2022-12-20T04:11:25;34.60;;;19.23;;
34072;SDS011;20346;52.702;16.886;2022-12-20T04:14:10;37.08;;;19.25;;
34072;SDS011;20346;52.702;16.886;2022-12-20T04:16:55;31.40;;;19.48;;
34072;SDS011;20346;52.702;16.886;2022-12-20T04:19:40;34.53;;;18.55;;
34072;SDS011;20346;52.702;16.886;2022-12-20T04:22:25;31.40;;;18.10;;
34072;SDS011;20346;52.702;16.886;2022-12-20T04:25:10;36.20;;;18.90;;
34072;SDS011;20346;52.702;16.886;2022-12-20T04:27:55;33.33;;;18.17;;
34072;SDS011;20346;52.702;16.886;2022-12-20T04:30:40;31.62;;;18.50;;
34072;SDS011;20346;52.702;16.886;2022-12-20T04:33:25;36.25;;;19.17;;
34072;SDS011;20346;52.702;16.886;2022-12-20T04:36:11;32.23;;;18.73;;
34072;SDS011;20346;52.702;16.886;2022-12-20T04:38:56;33.40;;;19.17;;
34072;SDS011;20346;52.702;16.886;2022-12-20T04:41:41;36.55;;;19.07;;
34072;SDS011;20346;52.702;16.886;2022-12-20T04:44:26;31.70;;;17.75;;
34072;SDS011;20346;52.702;16.886;2022-12-20T04:47:11;28.83;;;16.85;;
34072;SDS011;20346;52.702;16.886;2022-12-20T04:49:56;36.35;;;18.30;;
34072;SDS011;20346;52.702;16.886;2022-12-20T04:52:41;31.80;;;18.12;;
34072;SDS011;20346;52.702;16.886;2022-12-20T04:55:44;36.63;;;18.30;;
34072;SDS011;20346;52.702;16.886;2022-12-20T04:58:29;33.53;;;16.52;;
34072;SDS011;20346;52.702;16.886;2022-12-20T05:01:14;34.57;;;18.43;;
34072;SDS011;20346;52.702;16.886;2022-12-20T05:03:59;35.78;;;17.45;;
34072;SDS011;20346;52.702;16.886;2022-12-20T05:06:44;31.60;;;17.35;;
34072;SDS011;20346;52.702;16.886;2022-12-20T05:09:29;32.75;;;17.12;;
34072;SDS011;20346;52.702;16.886;2022-12-20T05:12:14;31.90;;;17.17;;
34072;SDS011;20346;52.702;16.886;2022-12-20T05:14:59;31.30;;;17.67;;
34072;SDS011;20346;52.702;16.886;2022-12-20T05:17:44;32.85;;;17.70;;
34072;SDS011;20346;52.702;16.886;2022-12-20T05:20:29;34.75;;;19.12;;
34072;SDS011;20346;52.702;16.886;2022-12-20T05:23:15;34.75;;;18.12;;
34072;SDS011;20346;52.702;16.886;2022-12-20T05:26:18;31.05;;;17.20;;
34072;SDS011;20346;52.702;16.886;2022-12-20T05:29:03;32.80;;;18.67;;
34072;SDS011;20346;52.702;16.886;2022-12-20T05:31:49;36.38;;;18.77;;
34072;SDS011;20346;52.702;16.886;2022-12-20T05:34:35;33.13;;;17.70;;
34072;SDS011;20346;52.702;16.886;2022-12-20T05:37:20;37.73;;;19.73;;
34072;SDS011;20346;52.702;16.886;2022-12-20T05:40:05;34.15;;;18.82;;
34072;SDS011;20346;52.702;16.886;2022-12-20T05:42:50;39.30;;;20.25;;
34072;SDS011;20346;52.702;16.886;2022-12-20T05:45:35;43.28;;;20.32;;
34072;SDS011;20346;52.702;16.886;2022-12-20T05:48:20;38.40;;;19.87;;
34072;SDS011;20346;52.702;16.886;2022-12-20T05:51:05;38.67;;;19.10;;
34072;SDS011;20346;52.702;16.886;2022-12-20T05:53:50;32.65;;;17.60;;
34072;SDS011;20346;52.702;16.886;2022-12-20T05:56:35;34.75;;;17.73;;
34072;SDS011;20346;52.702;16.886;2022-12-20T05:59:20;36.50;;;18.65;;
34072;SDS011;20346;52.702;16.886;2022-12-20T06:02:05;33.38;;;18.90;;
34072;SDS011;20346;52.702;16.886;2022-12-20T06:04:50;33.92;;;17.65;;
34072;SDS011;20346;52.702;16.886;2022-12-20T06:07:34;33.67;;;18.70;;
34072;SDS011;20346;52.702;16.886;2022-12-20T06:10:19;32.05;;;17.70;;
34072;SDS011;20346;52.702;16.886;2022-12-20T06:13:05;32.10;;;19.23;;
34072;SDS011;20346;52.702;16.886;2022-12-20T06:15:51;38.17;;;19.80;;
34072;SDS011;20346;52.702;16.886;2022-12-20T06:18:36;33.83;;;18.32;;
34072;SDS011;20346;52.702;16.886;2022-12-20T06:21:21;37.35;;;19.12;;
34072;SDS011;20346;52.702;16.886;2022-12-20T06:24:06;37.13;;;20.33;;
34072;SDS011;20346;52.702;16.886;2022-12-20T06:26:51;34.00;;;18.80;;
34072;SDS011;20346;52.702;16.886;2022-12-20T06:29:36;37.25;;;19.45;;
34072;SDS011;20346;52.702;16.886;2022-12-20T06:32:21;34.05;;;18.27;;
34072;SDS011;20346;52.702;16.886;2022-12-20T06:35:07;36.70;;;20.20;;
34072;SDS011;20346;52.702;16.886;2022-12-20T06:37:52;25.60;;;14.45;;
34072;SDS011;20346;52.702;16.886;2022-12-20T06:40:37;33.67;;;18.67;;
34072;SDS011;20346;52.702;16.886;2022-12-20T06:43:22;42.03;;;20.72;;
34072;SDS011;20346;52.702;16.886;2022-12-20T06:46:07;38.63;;;19.92;;
34072;SDS011;20346;52.702;16.886;2022-12-20T06:48:52;38.60;;;19.85;;
34072;SDS011;20346;52.702;16.886;2022-12-20T06:51:40;35.80;;;20.45;;
34072;SDS011;20346;52.702;16.886;2022-12-20T06:54:25;36.28;;;20.12;;
34072;SDS011;20346;52.702;16.886;2022-12-20T06:57:10;40.48;;;20.92;;
34072;SDS011;20346;52.702;16.886;2022-12-20T06:59:55;42.65;;;21.15;;
34072;SDS011;20346;52.702;16.886;2022-12-20T07:02:39;38.23;;;19.67;;
34072;SDS011;20346;52.702;16.886;2022-12-20T07:05:24;41.58;;;21.30;;
34072;SDS011;20346;52.702;16.886;2022-12-20T07:08:10;38.78;;;21.50;;
34072;SDS011;20346;52.702;16.886;2022-12-20T07:10:55;36.30;;;20.08;;
34072;SDS011;20346;52.702;16.886;2022-12-20T07:13:48;44.10;;;20.12;;
34072;SDS011;20346;52.702;16.886;2022-12-20T07:16:40;38.92;;;20.65;;
34072;SDS011;20346;52.702;16.886;2022-12-20T07:19:26;37.90;;;20.20;;
34072;SDS011;20346;52.702;16.886;2022-12-20T07:22:11;39.00;;;20.92;;
34072;SDS011;20346;52.702;16.886;2022-12-20T07:24:56;38.80;;;20.55;;
34072;SDS011;20346;52.702;16.886;2022-12-20T07:27:41;39.53;;;19.55;;
34072;SDS011;20346;52.702;16.886;2022-12-20T07:30:28;40.85;;;21.62;;
34072;SDS011;20346;52.702;16.886;2022-12-20T07:33:13;45.65;;;23.20;;
34072;SDS011;20346;52.702;16.886;2022-12-20T07:36:09;39.70;;;20.85;;
34072;SDS011;20346;52.702;16.886;2022-12-20T07:38:50;39.05;;;20.75;;
34072;SDS011;20346;52.702;16.886;2022-12-20T07:41:35;43.30;;;22.35;;
34072;SDS011;20346;52.702;16.886;2022-12-20T07:44:20;46.90;;;23.15;;
34072;SDS011;20346;52.702;16.886;2022-12-20T07:47:05;46.53;;;22.40;;
34072;SDS011;20346;52.702;16.886;2022-12-20T07:49:50;44.60;;;22.30;;
34072;SDS011;20346;52.702;16.886;2022-12-20T07:52:35;43.25;;;22.22;;
34072;SDS011;20346;52.702;16.886;2022-12-20T07:55:22;42.70;;;22.85;;
34072;SDS011;20346;52.702;16.886;2022-12-20T07:58:07;44.38;;;23.45;;
34072;SDS011;20346;52.702;16.886;2022-12-20T08:00:55;37.58;;;19.90;;
34072;SDS011;20346;52.702;16.886;2022-12-20T08:03:42;43.10;;;23.10;;
34072;SDS011;20346;52.702;16.886;2022-12-20T08:06:32;43.50;;;21.68;;
34072;SDS011;20346;52.702;16.886;2022-12-20T08:09:19;37.98;;;20.72;;
34072;SDS011;20346;52.702;16.886;2022-12-20T08:12:04;38.67;;;20.35;;
34072;SDS011;20346;52.702;16.886;2022-12-20T08:14:51;35.25;;;19.87;;
34072;SDS011;20346;52.702;16.886;2022-12-20T08:17:37;40.08;;;20.90;;
34072;SDS011;20346;52.702;16.886;2022-12-20T08:20:22;38.95;;;20.77;;
34072;SDS011;20346;52.702;16.886;2022-12-20T08:23:07;36.63;;;19.75;;
34072;SDS011;20346;52.702;16.886;2022-12-20T08:25:52;35.95;;;20.50;;
34072;SDS011;20346;52.702;16.886;2022-12-20T08:28:37;35.13;;;19.30;;
34072;SDS011;20346;52.702;16.886;2022-12-20T08:31:22;34.08;;;19.10;;
34072;SDS011;20346;52.702;16.886;2022-12-20T08:34:07;38.33;;;20.23;;
34072;SDS011;20346;52.702;16.886;2022-12-20T08:36:53;38.87;;;20.43;;
34072;SDS011;20346;52.702;16.886;2022-12-20T08:39:38;38.48;;;20.15;;
34072;SDS011;20346;52.702;16.886;2022-12-20T08:42:23;39.83;;;20.52;;
34072;SDS011;20346;52.702;16.886;2022-12-20T08:45:08;33.23;;;19.67;;
34072;SDS011;20346;52.702;16.886;2022-12-20T08:47:53;37.50;;;19.98;;
34072;SDS011;20346;52.702;16.886;2022-12-20T08:50:38;39.60;;;20.68;;
34072;SDS011;20346;52.702;16.886;2022-12-20T08:53:24;38.75;;;20.90;;
34072;SDS011;20346;52.702;16.886;2022-12-20T08:56:09;39.90;;;21.40;;
34072;SDS011;20346;52.702;16.886;2022-12-20T08:58:57;39.15;;;20.57;;
34072;SDS011;20346;52.702;16.886;2022-12-20T09:01:42;39.70;;;21.65;;
34072;SDS011;20346;52.702;16.886;2022-12-20T09:04:27;36.73;;;21.02;;
34072;SDS011;20346;52.702;16.886;2022-12-20T09:07:12;38.83;;;21.35;;
34072;SDS011;20346;52.702;16.886;2022-12-20T09:09:57;37.33;;;20.15;;
34072;SDS011;20346;52.702;16.886;2022-12-20T09:12:42;41.23;;;22.22;;
34072;SDS011;20346;52.702;16.886;2022-12-20T09:15:27;37.50;;;20.77;;
34072;SDS011;20346;52.702;16.886;2022-12-20T09:18:12;37.75;;;20.90;;
34072;SDS011;20346;52.702;16.886;2022-12-20T09:21:03;36.90;;;20.65;;
34072;SDS011;20346;52.702;16.886;2022-12-20T09:23:51;39.10;;;21.70;;
34072;SDS011;20346;52.702;16.886;2022-12-20T09:26:37;37.17;;;21.15;;
34072;SDS011;20346;52.702;16.886;2022-12-20T09:32:08;35.65;;;19.02;;
34072;SDS011;20346;52.702;16.886;2022-12-20T09:34:52;34.27;;;19.48;;
34072;SDS011;20346;52.702;16.886;2022-12-20T09:37:38;35.58;;;19.52;;
34072;SDS011;20346;52.702;16.886;2022-12-20T09:40:24;33.78;;;19.52;;
34072;SDS011;20346;52.702;16.886;2022-12-20T09:43:14;33.63;;;19.07;;
34072;SDS011;20346;52.702;16.886;2022-12-20T09:46:00;36.88;;;20.52;;
34072;SDS011;20346;52.702;16.886;2022-12-20T09:48:47;44.08;;;22.45;;
34072;SDS011;20346;52.702;16.886;2022-12-20T09:51:54;40.12;;;22.42;;
34072;SDS011;20346;52.702;16.886;2022-12-20T09:58:13;36.58;;;20.45;;
34072;SDS011;20346;52.702;16.886;2022-12-20T10:01:15;38.50;;;21.02;;
34072;SDS011;20346;52.702;16.886;2022-12-20T10:04:04;37.40;;;20.23;;
34072;SDS011;20346;52.702;16.886;2022-12-20T10:11:09;34.65;;;20.52;;
34072;SDS011;20346;52.702;16.886;2022-12-20T10:25:47;40.15;;;20.60;;
34072;SDS011;20346;52.702;16.886;2022-12-20T10:28:35;41.63;;;21.12;;
34072;SDS011;20346;52.702;16.886;2022-12-20T10:31:21;36.05;;;20.68;;
34072;SDS011;20346;52.702;16.886;2022-12-20T10:34:07;36.45;;;21.37;;
34072;SDS011;20346;52.702;16.886;2022-12-20T10:37:25;35.15;;;20.37;;
34072;SDS011;20346;52.702;16.886;2022-12-20T10:39:58;40.28;;;21.40;;
34072;SDS011;20346;52.702;16.886;2022-12-20T10:42:44;37.80;;;20.20;;
34072;SDS011;20346;52.702;16.886;2022-12-20T10:45:34;40.27;;;21.57;;
34072;SDS011;20346;52.702;16.886;2022-12-20T10:51:23;39.75;;;21.48;;
34072;SDS011;20346;52.702;16.886;2022-12-20T10:54:19;36.85;;;21.70;;
34072;SDS011;20346;52.702;16.886;2022-12-20T11:00:09;44.27;;;22.70;;
34072;SDS011;20346;52.702;16.886;2022-12-20T11:06:01;39.98;;;20.95;;
34072;SDS011;20346;52.702;16.886;2022-12-20T11:08:47;39.27;;;22.07;;
34072;SDS011;20346;52.702;16.886;2022-12-20T11:11:32;42.30;;;22.67;;
34072;SDS011;20346;52.702;16.886;2022-12-20T11:14:17;41.02;;;22.15;;
34072;SDS011;20346;52.702;16.886;2022-12-20T11:23:32;40.05;;;22.73;;
34072;SDS011;20346;52.702;16.886;2022-12-20T11:26:37;41.60;;;21.30;;
34072;SDS011;20346;52.702;16.886;2022-12-20T11:36:20;42.13;;;22.62;;
34072;SDS011;20346;52.702;16.886;2022-12-20T11:57:31;41.42;;;21.70;;
34072;SDS011;20346;52.702;16.886;2022-12-20T12:00:24;44.88;;;22.73;;
34072;SDS011;20346;52.702;16.886;2022-12-20T12:03:15;40.83;;;22.58;;
34072;SDS011;20346;52.702;16.886;2022-12-20T12:06:26;43.42;;;22.02;;
34072;SDS011;20346;52.702;16.886;2022-12-20T12:11:59;45.63;;;23.12;;
34072;SDS011;20346;52.702;16.886;2022-12-20T12:18:08;41.35;;;20.62;;
34072;SDS011;20346;52.702;16.886;2022-12-20T12:21:22;46.00;;;22.30;;
34072;SDS011;20346;52.702;16.886;2022-12-20T12:24:20;42.20;;;23.18;;
34072;SDS011;20346;52.702;16.886;2022-12-20T12:27:26;46.65;;;24.32;;
34072;SDS011;20346;52.702;16.886;2022-12-20T12:30:16;44.53;;;22.93;;
34072;SDS011;20346;52.702;16.886;2022-12-20T12:33:00;42.70;;;23.95;;
34072;SDS011;20346;52.702;16.886;2022-12-20T12:36:15;51.37;;;24.70;;
34072;SDS011;20346;52.702;16.886;2022-12-20T12:46:18;44.33;;;24.35;;
34072;SDS011;20346;52.702;16.886;2022-12-20T12:48:39;48.35;;;23.80;;
34072;SDS011;20346;52.702;16.886;2022-12-20T12:51:38;44.05;;;22.65;;
34072;SDS011;20346;52.702;16.886;2022-12-20T12:54:37;45.50;;;23.75;;
34072;SDS011;20346;52.702;16.886;2022-12-20T12:57:24;48.15;;;25.62;;
34072;SDS011;20346;52.702;16.886;2022-12-20T13:03:45;48.05;;;23.98;;
34072;SDS011;20346;52.702;16.886;2022-12-20T13:06:50;45.88;;;24.37;;
34072;SDS011;20346;52.702;16.886;2022-12-20T13:18:30;44.40;;;23.52;;
34072;SDS011;20346;52.702;16.886;2022-12-20T13:21:34;46.10;;;23.90;;
34072;SDS011;20346;52.702;16.886;2022-12-20T13:27:32;44.25;;;23.70;;
34072;SDS011;20346;52.702;16.886;2022-12-20T13:33:22;40.35;;;22.40;;
34072;SDS011;20346;52.702;16.886;2022-12-20T13:36:28;40.23;;;21.25;;
34072;SDS011;20346;52.702;16.886;2022-12-20T13:42:14;43.48;;;23.40;;
34072;SDS011;20346;52.702;16.886;2022-12-20T13:45:18;42.10;;;22.20;;
34072;SDS011;20346;52.702;16.886;2022-12-20T13:48:03;44.05;;;21.50;;
34072;SDS011;20346;52.702;16.886;2022-12-20T13:50:51;42.20;;;22.85;;
34072;SDS011;20346;52.702;16.886;2022-12-20T13:53:38;44.23;;;23.57;;
34072;SDS011;20346;52.702;16.886;2022-12-20T14:02:18;41.20;;;22.13;;
34072;SDS011;20346;52.702;16.886;2022-12-20T14:05:25;44.08;;;22.93;;
34072;SDS011;20346;52.702;16.886;2022-12-20T14:08:17;46.48;;;22.40;;
34072;SDS011;20346;52.702;16.886;2022-12-20T14:13:58;45.58;;;24.95;;
34072;SDS011;20346;52.702;16.886;2022-12-20T14:16:46;45.00;;;24.85;;
34072;SDS011;20346;52.702;16.886;2022-12-20T14:19:31;49.40;;;25.30;;
34072;SDS011;20346;52.702;16.886;2022-12-20T14:22:16;43.17;;;23.85;;
34072;SDS011;20346;52.702;16.886;2022-12-20T14:25:01;44.00;;;24.37;;
34072;SDS011;20346;52.702;16.886;2022-12-20T14:27:50;49.10;;;26.20;;
34072;SDS011;20346;52.702;16.886;2022-12-20T14:30:40;44.08;;;24.30;;
34072;SDS011;20346;52.702;16.886;2022-12-20T14:33:36;46.00;;;24.25;;
34072;SDS011;20346;52.702;16.886;2022-12-20T14:36:23;46.85;;;24.70;;
34072;SDS011;20346;52.702;16.886;2022-12-20T14:39:25;53.35;;;25.97;;
34072;SDS011;20346;52.702;16.886;2022-12-20T14:42:16;53.73;;;26.02;;
34072;SDS011;20346;52.702;16.886;2022-12-20T14:48:04;49.38;;;25.43;;
34072;SDS011;20346;52.702;16.886;2022-12-20T14:50:58;47.85;;;25.02;;
34072;SDS011;20346;52.702;16.886;2022-12-20T14:53:43;50.60;;;25.68;;
34072;SDS011;20346;52.702;16.886;2022-12-20T14:56:30;54.00;;;27.13;;
34072;SDS011;20346;52.702;16.886;2022-12-20T14:59:17;57.20;;;28.77;;
34072;SDS011;20346;52.702;16.886;2022-12-20T15:02:33;58.48;;;29.37;;
34072;SDS011;20346;52.702;16.886;2022-12-20T15:08:30;56.53;;;28.80;;
34072;SDS011;20346;52.702;16.886;2022-12-20T15:11:17;51.23;;;26.48;;
34072;SDS011;20346;52.702;16.886;2022-12-20T15:14:18;55.20;;;27.45;;
34072;SDS011;20346;52.702;16.886;2022-12-20T15:17:19;56.50;;;27.97;;
34072;SDS011;20346;52.702;16.886;2022-12-20T15:20:04;55.67;;;26.70;;
34072;SDS011;20346;52.702;16.886;2022-12-20T15:22:53;60.67;;;28.77;;
34072;SDS011;20346;52.702;16.886;2022-12-20T15:25:38;60.03;;;26.82;;
34072;SDS011;20346;52.702;16.886;2022-12-20T15:28:23;55.92;;;28.00;;
34072;SDS011;20346;52.702;16.886;2022-12-20T15:31:09;56.75;;;28.30;;
34072;SDS011;20346;52.702;16.886;2022-12-20T15:36:41;56.42;;;28.87;;
34072;SDS011;20346;52.702;16.886;2022-12-20T15:39:26;58.85;;;28.10;;
34072;SDS011;20346;52.702;16.886;2022-12-20T15:42:14;59.15;;;27.10;;
34072;SDS011;20346;52.702;16.886;2022-12-20T15:45:00;58.60;;;27.67;;
34072;SDS011;20346;52.702;16.886;2022-12-20T15:47:46;55.80;;;26.73;;
34072;SDS011;20346;52.702;16.886;2022-12-20T15:50:32;59.97;;;28.50;;
34072;SDS011;20346;52.702;16.886;2022-12-20T15:53:18;58.05;;;27.20;;
34072;SDS011;20346;52.702;16.886;2022-12-20T15:56:15;59.27;;;28.30;;
34072;SDS011;20346;52.702;16.886;2022-12-20T15:59:02;57.80;;;27.70;;
34072;SDS011;20346;52.702;16.886;2022-12-20T16:01:47;54.73;;;27.57;;
34072;SDS011;20346;52.702;16.886;2022-12-20T16:04:32;52.78;;;28.42;;
34072;SDS011;20346;52.702;16.886;2022-12-20T16:07:17;55.28;;;27.22;;
34072;SDS011;20346;52.702;16.886;2022-12-20T16:10:02;54.90;;;27.42;;
34072;SDS011;20346;52.702;16.886;2022-12-20T16:12:48;58.13;;;28.67;;
34072;SDS011;20346;52.702;16.886;2022-12-20T16:15:33;54.33;;;28.47;;
34072;SDS011;20346;52.702;16.886;2022-12-20T16:18:18;60.38;;;28.83;;
34072;SDS011;20346;52.702;16.886;2022-12-20T16:21:04;54.67;;;26.85;;
34072;SDS011;20346;52.702;16.886;2022-12-20T16:23:53;59.77;;;28.25;;
34072;SDS011;20346;52.702;16.886;2022-12-20T16:26:38;56.80;;;29.00;;
34072;SDS011;20346;52.702;16.886;2022-12-20T16:29:23;61.10;;;29.02;;
34072;SDS011;20346;52.702;16.886;2022-12-20T16:32:12;55.43;;;29.00;;
34072;SDS011;20346;52.702;16.886;2022-12-20T16:35:00;61.37;;;29.67;;
34072;SDS011;20346;52.702;16.886;2022-12-20T16:37:45;60.85;;;29.07;;
34072;SDS011;20346;52.702;16.886;2022-12-20T16:40:31;60.48;;;28.83;;
34072;SDS011;20346;52.702;16.886;2022-12-20T16:43:17;59.40;;;29.07;;
34072;SDS011;20346;52.702;16.886;2022-12-20T16:46:02;57.80;;;28.30;;
34072;SDS011;20346;52.702;16.886;2022-12-20T16:48:48;63.95;;;28.98;;
34072;SDS011;20346;52.702;16.886;2022-12-20T16:51:34;57.55;;;28.95;;
34072;SDS011;20346;52.702;16.886;2022-12-20T16:54:28;58.40;;;29.37;;
34072;SDS011;20346;52.702;16.886;2022-12-20T16:57:13;61.95;;;29.18;;
34072;SDS011;20346;52.702;16.886;2022-12-20T16:59:58;59.48;;;27.90;;
34072;SDS011;20346;52.702;16.886;2022-12-20T17:02:43;68.95;;;30.50;;
34072;SDS011;20346;52.702;16.886;2022-12-20T17:05:29;64.90;;;31.37;;
34072;SDS011;20346;52.702;16.886;2022-12-20T17:08:18;58.70;;;29.85;;
34072;SDS011;20346;52.702;16.886;2022-12-20T17:11:08;59.67;;;30.30;;
34072;SDS011;20346;52.702;16.886;2022-12-20T17:14:11;63.08;;;29.20;;
34072;SDS011;20346;52.702;16.886;2022-12-20T17:16:56;60.50;;;30.70;;
34072;SDS011;20346;52.702;16.886;2022-12-20T17:19:41;58.60;;;29.82;;
34072;SDS011;20346;52.702;16.886;2022-12-20T17:22:26;61.33;;;29.32;;
34072;SDS011;20346;52.702;16.886;2022-12-20T17:25:16;64.70;;;29.57;;
34072;SDS011;20346;52.702;16.886;2022-12-20T17:28:13;62.90;;;30.15;;
34072;SDS011;20346;52.702;16.886;2022-12-20T17:30:58;68.55;;;31.02;;
34072;SDS011;20346;52.702;16.886;2022-12-20T17:33:43;63.35;;;30.37;;
34072;SDS011;20346;52.702;16.886;2022-12-20T17:36:28;61.00;;;30.17;;
34072;SDS011;20346;52.702;16.886;2022-12-20T17:39:13;60.95;;;29.40;;
34072;SDS011;20346;52.702;16.886;2022-12-20T17:41:59;66.92;;;29.02;;
34072;SDS011;20346;52.702;16.886;2022-12-20T17:44:44;61.53;;;29.60;;
34072;SDS011;20346;52.702;16.886;2022-12-20T17:47:29;62.10;;;29.48;;
34072;SDS011;20346;52.702;16.886;2022-12-20T17:50:15;57.67;;;29.20;;
34072;SDS011;20346;52.702;16.886;2022-12-20T17:53:01;62.03;;;30.05;;
34072;SDS011;20346;52.702;16.886;2022-12-20T17:55:47;62.10;;;30.85;;
34072;SDS011;20346;52.702;16.886;2022-12-20T17:58:32;64.30;;;31.25;;
34072;SDS011;20346;52.702;16.886;2022-12-20T18:01:17;66.50;;;30.45;;
34072;SDS011;20346;52.702;16.886;2022-12-20T18:04:06;58.48;;;28.40;;
34072;SDS011;20346;52.702;16.886;2022-12-20T18:06:53;57.73;;;29.18;;
34072;SDS011;20346;52.702;16.886;2022-12-20T18:09:39;64.35;;;30.52;;
34072;SDS011;20346;52.702;16.886;2022-12-20T18:12:24;58.65;;;29.07;;
34072;SDS011;20346;52.702;16.886;2022-12-20T18:15:10;63.80;;;29.63;;
34072;SDS011;20346;52.702;16.886;2022-12-20T18:17:54;55.08;;;26.97;;
34072;SDS011;20346;52.702;16.886;2022-12-20T18:20:39;60.35;;;28.95;;